sensor_id;sensor_type;location;lat;lon;timestamp;pressure;altitude;pressure_sealevel;temperature;humidity
64362;BME280;50685;53.346;-6.296;2022-10-30T00:01:05;100261.66;;;12.67;79.44
64362;BME280;50685;53.346;-6.296;2022-10-30T00:03:31;100260.78;;;12.66;78.36
64362;BME280;50685;53.346;-6.296;2022-10-30T00:05:56;100256.31;;;12.67;78.10
64362;BME280;50685;53.346;-6.296;2022-10-30T00:08:22;100238.47;;;12.72;76.45
64362;BME280;50685;53.346;-6.296;2022-10-30T00:10:49;100247.16;;;12.77;77.44
64362;BME280;50685;53.346;-6.296;2022-10-30T00:13:18;100247.97;;;12.79;77.40
64362;BME280;50685;53.346;-6.296;2022-10-30T00:15:50;100250.59;;;12.81;77.01
64362;BME280;50685;53.346;-6.296;2022-10-30T00:18:16;100247.03;;;12.80;76.26
64362;BME280;50685;53.346;-6.296;2022-10-30T00:20:41;100255.00;;;12.82;77.26
64362;BME280;50685;53.346;-6.296;2022-10-30T00:23:06;100252.38;;;12.80;76.54
64362;BME280;50685;53.346;-6.296;2022-10-30T00:25:33;100253.47;;;12.73;76.92
64362;BME280;50685;53.346;-6.296;2022-10-30T00:27:58;100270.41;;;12.70;76.89
64362;BME280;50685;53.346;-6.296;2022-10-30T00:30:24;100272.25;;;12.68;77.04
64362;BME280;50685;53.346;-6.296;2022-10-30T00:32:49;100274.00;;;12.69;77.43
64362;BME280;50685;53.346;-6.296;2022-10-30T00:35:14;100274.75;;;12.73;77.80
64362;BME280;50685;53.346;-6.296;2022-10-30T00:37:39;100283.34;;;12.83;77.77
64362;BME280;50685;53.346;-6.296;2022-10-30T00:40:05;100279.81;;;12.82;77.81
64362;BME280;50685;53.346;-6.296;2022-10-30T00:42:31;100270.09;;;12.81;77.80
64362;BME280;50685;53.346;-6.296;2022-10-30T00:44:57;100265.66;;;12.82;77.94
64362;BME280;50685;53.346;-6.296;2022-10-30T00:47:24;100271.84;;;12.82;77.52
64362;BME280;50685;53.346;-6.296;2022-10-30T00:49:52;100258.72;;;12.76;77.85
64362;BME280;50685;53.346;-6.296;2022-10-30T00:52:20;100260.72;;;12.69;78.11
64362;BME280;50685;53.346;-6.296;2022-10-30T00:54:47;100268.91;;;12.62;78.17
64362;BME280;50685;53.346;-6.296;2022-10-30T00:57:13;100261.03;;;12.59;78.39
64362;BME280;50685;53.346;-6.296;2022-10-30T00:59:38;100261.94;;;12.58;78.88
64362;BME280;50685;53.346;-6.296;2022-10-30T01:02:04;100257.47;;;12.58;78.61
64362;BME280;50685;53.346;-6.296;2022-10-30T01:04:29;100260.13;;;12.60;78.17
64362;BME280;50685;53.346;-6.296;2022-10-30T01:06:56;100261.81;;;12.61;78.01
64362;BME280;50685;53.346;-6.296;2022-10-30T01:09:22;100253.81;;;12.62;78.12
64362;BME280;50685;53.346;-6.296;2022-10-30T01:11:48;100253.72;;;12.65;78.51
64362;BME280;50685;53.346;-6.296;2022-10-30T01:14:14;100250.94;;;12.70;78.18
64362;BME280;50685;53.346;-6.296;2022-10-30T01:32:55;100241.63;;;12.55;78.69
64362;BME280;50685;53.346;-6.296;2022-10-30T01:35:26;100238.84;;;12.60;78.51
64362;BME280;50685;53.346;-6.296;2022-10-30T01:40:21;100241.13;;;12.70;77.79
64362;BME280;50685;53.346;-6.296;2022-10-30T01:45:21;100243.81;;;12.70;78.19
64362;BME280;50685;53.346;-6.296;2022-10-30T01:50:15;100241.72;;;12.80;77.40
64362;BME280;50685;53.346;-6.296;2022-10-30T01:58:22;100234.44;;;12.87;77.04
64362;BME280;50685;53.346;-6.296;2022-10-30T02:00:54;100226.50;;;12.85;77.21
64362;BME280;50685;53.346;-6.296;2022-10-30T02:03:21;100224.00;;;12.81;77.64
64362;BME280;50685;53.346;-6.296;2022-10-30T02:05:47;100226.66;;;12.81;77.48
64362;BME280;50685;53.346;-6.296;2022-10-30T02:08:13;100225.94;;;12.76;77.75
64362;BME280;50685;53.346;-6.296;2022-10-30T02:10:38;100236.53;;;12.77;77.13
64362;BME280;50685;53.346;-6.296;2022-10-30T02:13:05;100219.00;;;12.70;77.38
64362;BME280;50685;53.346;-6.296;2022-10-30T02:15:30;100225.88;;;12.77;77.01
64362;BME280;50685;53.346;-6.296;2022-10-30T02:17:56;100224.00;;;12.79;77.33
64362;BME280;50685;53.346;-6.296;2022-10-30T02:20:21;100222.38;;;12.75;77.09
64362;BME280;50685;53.346;-6.296;2022-10-30T02:22:48;100230.88;;;12.86;77.12
64362;BME280;50685;53.346;-6.296;2022-10-30T02:25:13;100216.59;;;12.91;76.96
64362;BME280;50685;53.346;-6.296;2022-10-30T02:27:39;100225.38;;;12.93;77.30
64362;BME280;50685;53.346;-6.296;2022-10-30T02:30:04;100216.59;;;12.89;77.81
64362;BME280;50685;53.346;-6.296;2022-10-30T02:32:30;100222.09;;;12.84;77.89
64362;BME280;50685;53.346;-6.296;2022-10-30T02:34:55;100223.06;;;12.82;78.29
64362;BME280;50685;53.346;-6.296;2022-10-30T02:37:21;100211.47;;;12.84;78.25
64362;BME280;50685;53.346;-6.296;2022-10-30T02:39:47;100213.03;;;12.90;78.09
64362;BME280;50685;53.346;-6.296;2022-10-30T02:42:12;100213.81;;;12.94;77.90
64362;BME280;50685;53.346;-6.296;2022-10-30T02:44:38;100204.06;;;12.94;78.24
64362;BME280;50685;53.346;-6.296;2022-10-30T02:47:06;100206.72;;;12.94;78.29
64362;BME280;50685;53.346;-6.296;2022-10-30T02:49:31;100195.94;;;12.97;77.98
64362;BME280;50685;53.346;-6.296;2022-10-30T02:51:57;100194.97;;;13.00;77.99
64362;BME280;50685;53.346;-6.296;2022-10-30T02:54:22;100187.88;;;13.00;77.74
64362;BME280;50685;53.346;-6.296;2022-10-30T02:56:47;100199.31;;;13.02;77.72
64362;BME280;50685;53.346;-6.296;2022-10-30T02:59:13;100185.03;;;13.05;77.29
64362;BME280;50685;53.346;-6.296;2022-10-30T03:01:38;100198.34;;;13.05;77.73
64362;BME280;50685;53.346;-6.296;2022-10-30T03:04:03;100201.00;;;13.07;77.00
64362;BME280;50685;53.346;-6.296;2022-10-30T03:06:29;100193.00;;;13.07;77.05
64362;BME280;50685;53.346;-6.296;2022-10-30T03:08:54;100204.38;;;13.12;76.77
64362;BME280;50685;53.346;-6.296;2022-10-30T03:11:19;100200.66;;;13.16;76.39
64362;BME280;50685;53.346;-6.296;2022-10-30T03:13:45;100201.56;;;13.16;76.28
64362;BME280;50685;53.346;-6.296;2022-10-30T03:16:12;100209.56;;;13.15;76.84
64362;BME280;50685;53.346;-6.296;2022-10-30T03:18:38;100211.38;;;13.14;76.39
64362;BME280;50685;53.346;-6.296;2022-10-30T03:21:04;100219.47;;;13.11;76.65
64362;BME280;50685;53.346;-6.296;2022-10-30T03:23:30;100205.34;;;13.09;77.06
64362;BME280;50685;53.346;-6.296;2022-10-30T03:25:57;100214.16;;;13.11;77.31
64362;BME280;50685;53.346;-6.296;2022-10-30T03:28:24;100215.88;;;13.12;77.32
64362;BME280;50685;53.346;-6.296;2022-10-30T03:30:50;100207.84;;;13.14;77.32
64362;BME280;50685;53.346;-6.296;2022-10-30T03:33:16;100201.56;;;13.16;76.66
64362;BME280;50685;53.346;-6.296;2022-10-30T03:35:42;100213.94;;;13.17;76.77
64362;BME280;50685;53.346;-6.296;2022-10-30T03:38:07;100206.91;;;13.15;76.41
64362;BME280;50685;53.346;-6.296;2022-10-30T03:40:33;100205.22;;;13.12;77.21
64362;BME280;50685;53.346;-6.296;2022-10-30T03:42:58;100198.31;;;13.07;76.92
64362;BME280;50685;53.346;-6.296;2022-10-30T03:45:23;100204.41;;;13.10;76.57
64362;BME280;50685;53.346;-6.296;2022-10-30T03:47:49;100206.19;;;13.10;76.69
64362;BME280;50685;53.346;-6.296;2022-10-30T03:50:14;100198.19;;;13.11;77.06
64362;BME280;50685;53.346;-6.296;2022-10-30T03:52:39;100191.88;;;13.14;76.88
64362;BME280;50685;53.346;-6.296;2022-10-30T03:55:05;100194.38;;;13.18;76.94
64362;BME280;50685;53.346;-6.296;2022-10-30T03:57:30;100181.94;;;13.19;77.00
64362;BME280;50685;53.346;-6.296;2022-10-30T03:59:55;100183.63;;;13.22;76.38
64362;BME280;50685;53.346;-6.296;2022-10-30T04:02:21;100172.84;;;13.25;76.41
64362;BME280;50685;53.346;-6.296;2022-10-30T04:04:46;100187.00;;;13.27;76.73
64362;BME280;50685;53.346;-6.296;2022-10-30T04:07:11;100176.34;;;13.27;76.97
64362;BME280;50685;53.346;-6.296;2022-10-30T04:09:37;100164.66;;;13.31;76.77
64362;BME280;50685;53.346;-6.296;2022-10-30T04:12:02;100166.41;;;13.32;77.07
64362;BME280;50685;53.346;-6.296;2022-10-30T04:14:28;100154.94;;;13.30;77.45
64362;BME280;50685;53.346;-6.296;2022-10-30T04:16:54;100156.78;;;13.28;77.18
64362;BME280;50685;53.346;-6.296;2022-10-30T04:19:19;100166.59;;;13.27;77.65
64362;BME280;50685;53.346;-6.296;2022-10-30T04:21:44;100156.16;;;13.21;77.44
64362;BME280;50685;53.346;-6.296;2022-10-30T04:24:13;100153.22;;;13.29;77.58
64362;BME280;50685;53.346;-6.296;2022-10-30T04:26:41;100149.63;;;13.30;77.58
64362;BME280;50685;53.346;-6.296;2022-10-30T04:29:06;100146.97;;;13.30;77.60
64362;BME280;50685;53.346;-6.296;2022-10-30T04:31:31;100146.97;;;13.30;77.40
64362;BME280;50685;53.346;-6.296;2022-10-30T04:33:57;100142.41;;;13.33;77.57
64362;BME280;50685;53.346;-6.296;2022-10-30T04:36:22;100146.72;;;13.38;77.07
64362;BME280;50685;53.346;-6.296;2022-10-30T04:38:54;100148.47;;;13.39;76.80
64362;BME280;50685;53.346;-6.296;2022-10-30T04:41:19;100155.53;;;13.40;76.71
64362;BME280;50685;53.346;-6.296;2022-10-30T04:43:47;100158.22;;;13.38;76.67
64362;BME280;50685;53.346;-6.296;2022-10-30T04:46:12;100153.78;;;13.39;76.85
64362;BME280;50685;53.346;-6.296;2022-10-30T04:48:37;100163.66;;;13.35;77.14
64362;BME280;50685;53.346;-6.296;2022-10-30T04:51:03;100182.44;;;13.30;76.51
64362;BME280;50685;53.346;-6.296;2022-10-30T04:53:31;100163.03;;;13.27;74.89
64362;BME280;50685;53.346;-6.296;2022-10-30T04:55:58;100154.41;;;13.20;74.44
64362;BME280;50685;53.346;-6.296;2022-10-30T04:58:24;100162.06;;;13.02;72.26
64362;BME280;50685;53.346;-6.296;2022-10-30T05:00:49;100145.84;;;12.83;72.17
64362;BME280;50685;53.346;-6.296;2022-10-30T05:03:17;100154.44;;;12.65;72.71
64362;BME280;50685;53.346;-6.296;2022-10-30T05:08:34;100143.00;;;12.33;75.32
64362;BME280;50685;53.346;-6.296;2022-10-30T05:11:02;100131.00;;;12.19;77.42
64362;BME280;50685;53.346;-6.296;2022-10-30T05:13:28;100135.84;;;12.05;78.81
64362;BME280;50685;53.346;-6.296;2022-10-30T05:15:53;100137.97;;;11.92;79.55
64362;BME280;50685;53.346;-6.296;2022-10-30T05:18:19;100132.91;;;11.83;80.79
64362;BME280;50685;53.346;-6.296;2022-10-30T05:20:45;100153.50;;;11.74;80.55
64362;BME280;50685;53.346;-6.296;2022-10-30T05:23:13;100163.34;;;11.71;81.03
64362;BME280;50685;53.346;-6.296;2022-10-30T05:25:44;100159.84;;;11.70;81.40
64362;BME280;50685;53.346;-6.296;2022-10-30T05:28:09;100170.41;;;11.72;81.91
64362;BME280;50685;53.346;-6.296;2022-10-30T05:30:35;100174.81;;;11.73;82.47
64362;BME280;50685;53.346;-6.296;2022-10-30T05:33:00;100157.06;;;11.75;82.78
64362;BME280;50685;53.346;-6.296;2022-10-30T05:35:27;100140.22;;;11.76;83.61
64362;BME280;50685;53.346;-6.296;2022-10-30T05:37:52;100126.03;;;11.76;83.45
64362;BME280;50685;53.346;-6.296;2022-10-30T05:40:18;100125.19;;;11.75;85.35
64362;BME280;50685;53.346;-6.296;2022-10-30T05:42:46;100118.19;;;11.71;85.48
64362;BME280;50685;53.346;-6.296;2022-10-30T05:45:11;100119.25;;;11.65;84.97
64362;BME280;50685;53.346;-6.296;2022-10-30T05:47:37;100134.41;;;11.60;84.00
64362;BME280;50685;53.346;-6.296;2022-10-30T05:50:02;100146.06;;;11.56;83.73
64362;BME280;50685;53.346;-6.296;2022-10-30T05:52:28;100140.88;;;11.51;83.41
64362;BME280;50685;53.346;-6.296;2022-10-30T05:54:53;100140.00;;;11.51;82.82
64362;BME280;50685;53.346;-6.296;2022-10-30T05:57:18;100147.13;;;11.50;82.97
64362;BME280;50685;53.346;-6.296;2022-10-30T05:59:44;100150.69;;;11.49;82.79
64362;BME280;50685;53.346;-6.296;2022-10-30T06:02:09;100156.00;;;11.49;83.79
64362;BME280;50685;53.346;-6.296;2022-10-30T06:04:35;100156.91;;;11.48;82.80
64362;BME280;50685;53.346;-6.296;2022-10-30T06:07:00;100156.91;;;11.48;82.93
64362;BME280;50685;53.346;-6.296;2022-10-30T06:09:25;100139.38;;;11.41;81.65
64362;BME280;50685;53.346;-6.296;2022-10-30T06:11:51;100145.25;;;11.52;82.22
64362;BME280;50685;53.346;-6.296;2022-10-30T06:14:17;100138.13;;;11.54;81.01
64362;BME280;50685;53.346;-6.296;2022-10-30T06:16:42;100143.34;;;11.57;81.34
64362;BME280;50685;53.346;-6.296;2022-10-30T06:19:07;100135.38;;;11.59;81.48
64362;BME280;50685;53.346;-6.296;2022-10-30T06:21:32;100142.44;;;11.58;81.16
64362;BME280;50685;53.346;-6.296;2022-10-30T06:23:58;100130.06;;;11.59;81.15
64362;BME280;50685;53.346;-6.296;2022-10-30T06:26:23;100137.91;;;11.62;81.21
64362;BME280;50685;53.346;-6.296;2022-10-30T06:28:48;100137.88;;;11.64;80.89
64362;BME280;50685;53.346;-6.296;2022-10-30T06:31:14;100140.53;;;11.64;81.00
64362;BME280;50685;53.346;-6.296;2022-10-30T06:33:39;100138.81;;;11.61;81.56
64362;BME280;50685;53.346;-6.296;2022-10-30T06:36:04;100134.56;;;11.55;81.69
64362;BME280;50685;53.346;-6.296;2022-10-30T06:38:48;100131.13;;;11.52;81.99
64362;BME280;50685;53.346;-6.296;2022-10-30T06:41:14;100126.78;;;11.49;81.75
64362;BME280;50685;53.346;-6.296;2022-10-30T06:43:39;100129.56;;;11.45;82.28
64362;BME280;50685;53.346;-6.296;2022-10-30T06:46:04;100127.81;;;11.44;82.63
64362;BME280;50685;53.346;-6.296;2022-10-30T06:48:30;100110.19;;;11.41;83.07
64362;BME280;50685;53.346;-6.296;2022-10-30T06:50:56;100119.09;;;11.38;83.85
64362;BME280;50685;53.346;-6.296;2022-10-30T06:53:21;100126.09;;;11.41;83.59
64362;BME280;50685;53.346;-6.296;2022-10-30T06:56:20;100122.59;;;11.40;83.87
64362;BME280;50685;53.346;-6.296;2022-10-30T06:58:38;100126.28;;;11.35;84.67
64362;BME280;50685;53.346;-6.296;2022-10-30T07:01:04;100130.00;;;11.28;85.11
64362;BME280;50685;53.346;-6.296;2022-10-30T07:03:30;100124.00;;;11.21;85.29
64362;BME280;50685;53.346;-6.296;2022-10-30T07:05:55;100118.81;;;11.16;85.35
64362;BME280;50685;53.346;-6.296;2022-10-30T07:08:20;100129.47;;;11.15;85.04
64362;BME280;50685;53.346;-6.296;2022-10-30T07:10:46;100136.53;;;11.14;85.14
64362;BME280;50685;53.346;-6.296;2022-10-30T07:13:11;100134.84;;;11.12;85.62
64362;BME280;50685;53.346;-6.296;2022-10-30T07:15:36;100138.44;;;11.09;85.55
64362;BME280;50685;53.346;-6.296;2022-10-30T07:18:02;100145.56;;;11.07;86.29
64362;BME280;50685;53.346;-6.296;2022-10-30T07:20:29;100149.13;;;11.06;86.70
64362;BME280;50685;53.346;-6.296;2022-10-30T07:22:54;100148.22;;;11.07;86.29
64362;BME280;50685;53.346;-6.296;2022-10-30T07:25:19;100142.00;;;11.08;86.85
64362;BME280;50685;53.346;-6.296;2022-10-30T07:27:46;100142.81;;;11.12;87.61
64362;BME280;50685;53.346;-6.296;2022-10-30T07:30:12;100142.84;;;11.10;86.97
64362;BME280;50685;53.346;-6.296;2022-10-30T07:32:37;100137.44;;;11.13;86.70
64362;BME280;50685;53.346;-6.296;2022-10-30T07:35:03;100138.19;;;11.18;86.83
64362;BME280;50685;53.346;-6.296;2022-10-30T07:37:28;100125.72;;;11.22;86.42
64362;BME280;50685;53.346;-6.296;2022-10-30T07:39:54;100135.34;;;11.26;85.72
64362;BME280;50685;53.346;-6.296;2022-10-30T07:42:19;100144.91;;;11.32;85.56
64362;BME280;50685;53.346;-6.296;2022-10-30T07:44:44;100144.75;;;11.38;84.96
64362;BME280;50685;53.346;-6.296;2022-10-30T07:47:10;100136.69;;;11.43;84.54
64362;BME280;50685;53.346;-6.296;2022-10-30T07:49:35;100138.34;;;11.47;85.01
64362;BME280;50685;53.346;-6.296;2022-10-30T07:52:00;100127.72;;;11.47;85.30
64362;BME280;50685;53.346;-6.296;2022-10-30T07:54:26;100131.25;;;11.47;85.33
64362;BME280;50685;53.346;-6.296;2022-10-30T07:56:51;100124.13;;;11.49;85.09
64362;BME280;50685;53.346;-6.296;2022-10-30T07:59:16;100131.19;;;11.50;85.20
64362;BME280;50685;53.346;-6.296;2022-10-30T08:01:42;100131.91;;;11.55;84.55
64362;BME280;50685;53.346;-6.296;2022-10-30T08:04:07;100131.75;;;11.62;84.40
64362;BME280;50685;53.346;-6.296;2022-10-30T08:06:35;100142.25;;;11.66;84.71
64362;BME280;50685;53.346;-6.296;2022-10-30T08:09:00;100143.06;;;11.68;84.53
64362;BME280;50685;53.346;-6.296;2022-10-30T08:11:25;100139.44;;;11.71;84.36
64362;BME280;50685;53.346;-6.296;2022-10-30T08:13:51;100143.78;;;11.75;83.80
64362;BME280;50685;53.346;-6.296;2022-10-30T08:16:16;100147.16;;;11.80;83.23
64362;BME280;50685;53.346;-6.296;2022-10-30T08:18:42;100149.69;;;11.85;83.21
64362;BME280;50685;53.346;-6.296;2022-10-30T08:21:07;100154.06;;;11.86;82.83
64362;BME280;50685;53.346;-6.296;2022-10-30T08:23:33;100141.66;;;11.86;82.96
64362;BME280;50685;53.346;-6.296;2022-10-30T08:25:58;100137.19;;;11.88;83.51
64362;BME280;50685;53.346;-6.296;2022-10-30T08:28:26;100134.44;;;11.92;81.98
64362;BME280;50685;53.346;-6.296;2022-10-30T08:30:52;100137.88;;;11.95;82.33
64362;BME280;50685;53.346;-6.296;2022-10-30T08:33:17;100137.84;;;11.97;81.35
64362;BME280;50685;53.346;-6.296;2022-10-30T08:35:46;100139.59;;;11.98;81.45
64362;BME280;50685;53.346;-6.296;2022-10-30T08:38:12;100141.34;;;11.99;81.11
64362;BME280;50685;53.346;-6.296;2022-10-30T08:40:38;100141.81;;;12.13;81.13
64362;BME280;50685;53.346;-6.296;2022-10-30T08:43:03;100144.09;;;12.26;79.88
64362;BME280;50685;53.346;-6.296;2022-10-30T08:45:28;100136.59;;;12.40;79.46
64362;BME280;50685;53.346;-6.296;2022-10-30T08:48:00;100134.53;;;12.48;78.81
64362;BME280;50685;53.346;-6.296;2022-10-30T08:50:27;100139.78;;;12.51;78.69
64362;BME280;50685;53.346;-6.296;2022-10-30T08:52:52;100136.31;;;12.76;78.88
64362;BME280;50685;53.346;-6.296;2022-10-30T08:55:18;100139.22;;;13.22;76.48
64362;BME280;50685;53.346;-6.296;2022-10-30T08:57:43;100136.63;;;13.71;75.62
64362;BME280;50685;53.346;-6.296;2022-10-30T09:00:09;100143.75;;;14.20;73.31
64362;BME280;50685;53.346;-6.296;2022-10-30T09:02:35;100151.69;;;14.67;72.21
64362;BME280;50685;53.346;-6.296;2022-10-30T09:05:03;100142.31;;;15.01;71.98
64362;BME280;50685;53.346;-6.296;2022-10-30T09:07:30;100150.19;;;15.04;69.90
64362;BME280;50685;53.346;-6.296;2022-10-30T09:09:55;100150.81;;;15.32;69.94
64362;BME280;50685;53.346;-6.296;2022-10-30T09:12:20;100144.94;;;15.65;67.89
64362;BME280;50685;53.346;-6.296;2022-10-30T09:14:46;100140.72;;;16.00;67.37
64362;BME280;50685;53.346;-6.296;2022-10-30T09:17:11;100140.56;;;16.42;65.00
64362;BME280;50685;53.346;-6.296;2022-10-30T09:19:36;100142.97;;;16.84;65.44
64362;BME280;50685;53.346;-6.296;2022-10-30T09:22:02;100143.91;;;17.20;63.41
64362;BME280;50685;53.346;-6.296;2022-10-30T09:24:27;100139.50;;;17.37;64.00
64362;BME280;50685;53.346;-6.296;2022-10-30T09:26:53;100140.91;;;17.09;61.37
64362;BME280;50685;53.346;-6.296;2022-10-30T09:29:19;100133.72;;;17.09;63.50
64362;BME280;50685;53.346;-6.296;2022-10-30T09:31:44;100133.56;;;17.12;62.64
64362;BME280;50685;53.346;-6.296;2022-10-30T09:34:09;100133.75;;;16.90;62.10
64362;BME280;50685;53.346;-6.296;2022-10-30T09:36:35;100134.28;;;16.79;63.27
64362;BME280;50685;53.346;-6.296;2022-10-30T09:39:00;100142.81;;;16.51;63.67
64362;BME280;50685;53.346;-6.296;2022-10-30T09:41:29;100130.50;;;16.28;64.19
64362;BME280;50685;53.346;-6.296;2022-10-30T09:44:18;100134.63;;;15.97;65.64
64362;BME280;50685;53.346;-6.296;2022-10-30T09:54:54;100136.09;;;15.01;65.01
64362;BME280;50685;53.346;-6.296;2022-10-30T10:00:08;100131.03;;;14.94;66.26
64362;BME280;50685;53.346;-6.296;2022-10-30T10:02:57;100125.09;;;15.08;66.87
64362;BME280;50685;53.346;-6.296;2022-10-30T10:05:21;100128.53;;;15.33;66.12
64362;BME280;50685;53.346;-6.296;2022-10-30T10:07:51;100137.31;;;15.55;66.22
64362;BME280;50685;53.346;-6.296;2022-10-30T10:10:31;100147.53;;;15.66;64.81
64362;BME280;50685;53.346;-6.296;2022-10-30T10:13:00;100138.03;;;15.80;64.39
64362;BME280;50685;53.346;-6.296;2022-10-30T10:17:52;100147.00;;;15.79;62.84
64362;BME280;50685;53.346;-6.296;2022-10-30T10:20:41;100144.41;;;15.77;62.96
64362;BME280;50685;53.346;-6.296;2022-10-30T10:23:15;100154.19;;;15.77;64.00
64362;BME280;50685;53.346;-6.296;2022-10-30T10:25:41;100142.56;;;15.78;63.74
64362;BME280;50685;53.346;-6.296;2022-10-30T10:30:41;100140.53;;;15.64;63.44
64362;BME280;50685;53.346;-6.296;2022-10-30T10:33:20;100136.66;;;15.50;63.44
64362;BME280;50685;53.346;-6.296;2022-10-30T10:41:15;100129.09;;;15.19;65.18
64362;BME280;50685;53.346;-6.296;2022-10-30T10:48:49;100132.06;;;14.90;67.36
64362;BME280;50685;53.346;-6.296;2022-10-30T10:51:19;100128.22;;;14.75;67.23
64362;BME280;50685;53.346;-6.296;2022-10-30T10:53:48;100134.91;;;14.63;68.50
64362;BME280;50685;53.346;-6.296;2022-10-30T10:56:17;100141.31;;;14.59;69.76
64362;BME280;50685;53.346;-6.296;2022-10-30T10:58:53;100144.09;;;14.56;69.70
64362;BME280;50685;53.346;-6.296;2022-10-30T11:01:21;100154.03;;;14.53;69.37
64362;BME280;50685;53.346;-6.296;2022-10-30T11:03:59;100150.53;;;14.51;70.30
64362;BME280;50685;53.346;-6.296;2022-10-30T11:06:28;100161.22;;;14.51;70.27
64362;BME280;50685;53.346;-6.296;2022-10-30T11:09:00;100150.22;;;14.58;70.48
64362;BME280;50685;53.346;-6.296;2022-10-30T11:11:26;100156.09;;;14.68;70.06
64362;BME280;50685;53.346;-6.296;2022-10-30T11:13:51;100153.81;;;14.81;69.81
64362;BME280;50685;53.346;-6.296;2022-10-30T11:18:51;100145.34;;;15.35;69.27
64362;BME280;50685;53.346;-6.296;2022-10-30T11:21:18;100153.28;;;15.57;68.47
64362;BME280;50685;53.346;-6.296;2022-10-30T11:23:46;100157.88;;;15.74;66.33
64362;BME280;50685;53.346;-6.296;2022-10-30T11:31:35;100149.66;;;15.79;63.96
64362;BME280;50685;53.346;-6.296;2022-10-30T11:36:42;100161.25;;;15.38;62.29
64362;BME280;50685;53.346;-6.296;2022-10-30T11:39:09;100158.38;;;15.22;63.58
64362;BME280;50685;53.346;-6.296;2022-10-30T11:41:34;100159.25;;;15.00;63.64
64362;BME280;50685;53.346;-6.296;2022-10-30T11:44:00;100176.03;;;14.82;65.01
64362;BME280;50685;53.346;-6.296;2022-10-30T11:46:25;100172.25;;;14.65;66.44
64362;BME280;50685;53.346;-6.296;2022-10-30T11:48:51;100181.88;;;14.45;67.13
64362;BME280;50685;53.346;-6.296;2022-10-30T11:51:39;100161.03;;;14.33;67.75
64362;BME280;50685;53.346;-6.296;2022-10-30T11:54:04;100167.50;;;14.26;68.59
64362;BME280;50685;53.346;-6.296;2022-10-30T11:56:31;100151.63;;;14.23;68.83
64362;BME280;50685;53.346;-6.296;2022-10-30T11:58:58;100157.94;;;14.20;68.00
64362;BME280;50685;53.346;-6.296;2022-10-30T12:01:28;100157.13;;;14.18;68.63
64362;BME280;50685;53.346;-6.296;2022-10-30T12:04:11;100156.31;;;14.16;68.24
64362;BME280;50685;53.346;-6.296;2022-10-30T12:06:44;100166.75;;;14.22;68.80
64362;BME280;50685;53.346;-6.296;2022-10-30T12:09:11;100162.94;;;14.29;68.34
64362;BME280;50685;53.346;-6.296;2022-10-30T12:11:37;100171.13;;;14.47;68.17
64362;BME280;50685;53.346;-6.296;2022-10-30T12:14:12;100171.28;;;14.66;67.13
64362;BME280;50685;53.346;-6.296;2022-10-30T12:16:40;100181.25;;;14.85;66.70
64362;BME280;50685;53.346;-6.296;2022-10-30T12:19:10;100179.13;;;14.93;65.62
64362;BME280;50685;53.346;-6.296;2022-10-30T12:21:43;100179.84;;;14.98;66.11
64362;BME280;50685;53.346;-6.296;2022-10-30T12:24:15;100182.66;;;15.16;65.98
64362;BME280;50685;53.346;-6.296;2022-10-30T12:26:41;100173.94;;;15.33;65.84
64362;BME280;50685;53.346;-6.296;2022-10-30T12:29:12;100165.31;;;15.47;64.62
64362;BME280;50685;53.346;-6.296;2022-10-30T12:31:47;100160.63;;;15.52;64.38
64362;BME280;50685;53.346;-6.296;2022-10-30T12:37:08;100177.59;;;15.71;64.22
64362;BME280;50685;53.346;-6.296;2022-10-30T12:40:20;100178.94;;;15.82;63.41
64362;BME280;50685;53.346;-6.296;2022-10-30T12:42:24;100176.69;;;15.72;63.34
64362;BME280;50685;53.346;-6.296;2022-10-30T12:44:59;100176.28;;;15.61;64.54
64362;BME280;50685;53.346;-6.296;2022-10-30T12:50:00;100168.94;;;15.46;64.54
64362;BME280;50685;53.346;-6.296;2022-10-30T12:52:41;100161.63;;;15.70;64.92
64362;BME280;50685;53.346;-6.296;2022-10-30T13:00:21;100153.72;;;17.02;61.84
64362;BME280;50685;53.346;-6.296;2022-10-30T13:02:49;100167.16;;;17.37;59.73
64362;BME280;50685;53.346;-6.296;2022-10-30T13:10:39;100154.94;;;17.49;59.55
64362;BME280;50685;53.346;-6.296;2022-10-30T13:13:24;100162.72;;;17.71;59.00
64362;BME280;50685;53.346;-6.296;2022-10-30T13:15:53;100159.75;;;18.11;57.67
64362;BME280;50685;53.346;-6.296;2022-10-30T13:18:20;100157.06;;;18.11;57.35
64362;BME280;50685;53.346;-6.296;2022-10-30T13:23:32;100149.44;;;17.86;57.97
64362;BME280;50685;53.346;-6.296;2022-10-30T13:28:38;100143.31;;;18.17;57.15
64362;BME280;50685;53.346;-6.296;2022-10-30T13:36:25;100165.38;;;18.22;56.52
64362;BME280;50685;53.346;-6.296;2022-10-30T13:51:55;100186.13;;;18.84;54.48
64362;BME280;50685;53.346;-6.296;2022-10-30T13:56:49;100186.66;;;17.92;55.65
64362;BME280;50685;53.346;-6.296;2022-10-30T14:07:35;100204.91;;;17.85;55.78
64362;BME280;50685;53.346;-6.296;2022-10-30T14:09:51;100200.81;;;17.95;55.40
64362;BME280;50685;53.346;-6.296;2022-10-30T14:15:03;100216.16;;;17.04;57.40
64362;BME280;50685;53.346;-6.296;2022-10-30T14:17:31;100219.81;;;16.82;58.66
64362;BME280;50685;53.346;-6.296;2022-10-30T14:22:32;100214.63;;;16.60;59.78
64362;BME280;50685;53.346;-6.296;2022-10-30T14:24:58;100221.94;;;16.57;60.27
64362;BME280;50685;53.346;-6.296;2022-10-30T14:27:27;100223.69;;;16.58;59.98
64362;BME280;50685;53.346;-6.296;2022-10-30T14:29:53;100224.03;;;17.07;60.00
64362;BME280;50685;53.346;-6.296;2022-10-30T14:37:16;100233.00;;;18.13;55.82
64362;BME280;50685;53.346;-6.296;2022-10-30T14:39:46;100238.69;;;18.07;55.87
64362;BME280;50685;53.346;-6.296;2022-10-30T14:44:59;100243.63;;;18.14;54.14
64362;BME280;50685;53.346;-6.296;2022-10-30T14:47:35;100246.00;;;18.21;55.52
64362;BME280;50685;53.346;-6.296;2022-10-30T15:05:44;100265.25;;;17.94;54.78
64362;BME280;50685;53.346;-6.296;2022-10-30T15:13:50;100281.16;;;17.98;54.96